sensor_id;sensor_type;location;lat;lon;timestamp;P1;durP1;ratioP1;P2;durP2;ratioP2
33501;SDS011;22396;51.070;4.974;2023-02-15T00:00:54;27.00;;;10.63;;
33501;SDS011;22396;51.070;4.974;2023-02-15T00:03:29;36.27;;;9.73;;
33501;SDS011;22396;51.070;4.974;2023-02-15T00:05:56;24.83;;;10.03;;
33501;SDS011;22396;51.070;4.974;2023-02-15T00:08:21;30.77;;;11.03;;
33501;SDS011;22396;51.070;4.974;2023-02-15T00:10:46;31.47;;;11.03;;
33501;SDS011;22396;51.070;4.974;2023-02-15T00:13:11;27.40;;;9.17;;
33501;SDS011;22396;51.070;4.974;2023-02-15T00:15:37;34.93;;;10.57;;
33501;SDS011;22396;51.070;4.974;2023-02-15T00:18:02;28.23;;;9.27;;
33501;SDS011;22396;51.070;4.974;2023-02-15T00:20:27;26.87;;;9.60;;
33501;SDS011;22396;51.070;4.974;2023-02-15T00:22:53;34.03;;;9.40;;
33501;SDS011;22396;51.070;4.974;2023-02-15T00:25:18;17.17;;;8.47;;
33501;SDS011;22396;51.070;4.974;2023-02-15T00:27:43;20.37;;;8.00;;
33501;SDS011;22396;51.070;4.974;2023-02-15T00:30:08;24.80;;;8.97;;
33501;SDS011;22396;51.070;4.974;2023-02-15T00:32:33;27.47;;;8.53;;
33501;SDS011;22396;51.070;4.974;2023-02-15T00:34:59;23.67;;;8.47;;
33501;SDS011;22396;51.070;4.974;2023-02-15T00:37:24;23.47;;;8.03;;
33501;SDS011;22396;51.070;4.974;2023-02-15T00:39:49;19.70;;;8.17;;
33501;SDS011;22396;51.070;4.974;2023-02-15T00:42:14;23.53;;;8.77;;
33501;SDS011;22396;51.070;4.974;2023-02-15T00:44:39;26.83;;;8.43;;
33501;SDS011;22396;51.070;4.974;2023-02-15T00:47:04;28.10;;;9.07;;
33501;SDS011;22396;51.070;4.974;2023-02-15T00:49:30;22.83;;;8.43;;
33501;SDS011;22396;51.070;4.974;2023-02-15T00:51:55;22.77;;;7.90;;
33501;SDS011;22396;51.070;4.974;2023-02-15T00:54:20;19.13;;;8.03;;
33501;SDS011;22396;51.070;4.974;2023-02-15T00:56:45;23.13;;;8.60;;
33501;SDS011;22396;51.070;4.974;2023-02-15T00:59:10;23.50;;;8.00;;
33501;SDS011;22396;51.070;4.974;2023-02-15T01:01:36;19.97;;;7.67;;
33501;SDS011;22396;51.070;4.974;2023-02-15T01:04:01;25.43;;;8.17;;
33501;SDS011;22396;51.070;4.974;2023-02-15T01:06:26;18.93;;;7.57;;
33501;SDS011;22396;51.070;4.974;2023-02-15T01:08:52;22.53;;;8.17;;
33501;SDS011;22396;51.070;4.974;2023-02-15T01:11:18;18.87;;;7.70;;
33501;SDS011;22396;51.070;4.974;2023-02-15T01:13:53;15.33;;;7.17;;
33501;SDS011;22396;51.070;4.974;2023-02-15T01:16:19;27.63;;;7.80;;
33501;SDS011;22396;51.070;4.974;2023-02-15T01:18:44;20.00;;;7.53;;
33501;SDS011;22396;51.070;4.974;2023-02-15T01:21:19;24.57;;;8.73;;
33501;SDS011;22396;51.070;4.974;2023-02-15T01:23:45;18.23;;;7.70;;
33501;SDS011;22396;51.070;4.974;2023-02-15T01:26:10;20.00;;;7.63;;
33501;SDS011;22396;51.070;4.974;2023-02-15T01:28:35;23.60;;;8.00;;
33501;SDS011;22396;51.070;4.974;2023-02-15T01:31:19;20.70;;;7.90;;
33501;SDS011;22396;51.070;4.974;2023-02-15T01:33:45;21.07;;;7.90;;
33501;SDS011;22396;51.070;4.974;2023-02-15T01:36:11;19.63;;;6.90;;
33501;SDS011;22396;51.070;4.974;2023-02-15T01:38:36;21.87;;;7.37;;
33501;SDS011;22396;51.070;4.974;2023-02-15T01:41:01;22.17;;;9.27;;
33501;SDS011;22396;51.070;4.974;2023-02-15T01:43:46;21.50;;;9.13;;
33501;SDS011;22396;51.070;4.974;2023-02-15T01:46:12;18.90;;;7.50;;
33501;SDS011;22396;51.070;4.974;2023-02-15T01:48:39;21.57;;;8.50;;
33501;SDS011;22396;51.070;4.974;2023-02-15T01:51:05;20.97;;;7.93;;
33501;SDS011;22396;51.070;4.974;2023-02-15T01:53:32;25.87;;;9.60;;
33501;SDS011;22396;51.070;4.974;2023-02-15T01:56:02;25.80;;;9.37;;
33501;SDS011;22396;51.070;4.974;2023-02-15T01:58:28;20.90;;;8.00;;
33501;SDS011;22396;51.070;4.974;2023-02-15T02:00:57;20.67;;;7.97;;
33501;SDS011;22396;51.070;4.974;2023-02-15T02:04:25;21.50;;;8.43;;
33501;SDS011;22396;51.070;4.974;2023-02-15T02:06:18;20.57;;;7.67;;
33501;SDS011;22396;51.070;4.974;2023-02-15T02:08:44;25.50;;;9.33;;
33501;SDS011;22396;51.070;4.974;2023-02-15T02:11:10;20.57;;;8.87;;
33501;SDS011;22396;51.070;4.974;2023-02-15T02:13:35;22.57;;;9.13;;
33501;SDS011;22396;51.070;4.974;2023-02-15T02:16:04;21.27;;;7.90;;
33501;SDS011;22396;51.070;4.974;2023-02-15T02:21:09;21.45;;;8.35;;
33501;SDS011;22396;51.070;4.974;2023-02-15T02:23:51;24.13;;;9.32;;
33501;SDS011;22396;51.070;4.974;2023-02-15T02:28:57;28.43;;;8.93;;
33501;SDS011;22396;51.070;4.974;2023-02-15T02:34:17;21.10;;;7.83;;
33501;SDS011;22396;51.070;4.974;2023-02-15T02:36:49;25.70;;;10.03;;
33501;SDS011;22396;51.070;4.974;2023-02-15T02:41:48;24.10;;;8.37;;
33501;SDS011;22396;51.070;4.974;2023-02-15T02:47:09;20.20;;;7.77;;
33501;SDS011;22396;51.070;4.974;2023-02-15T02:49:36;26.53;;;9.03;;
33501;SDS011;22396;51.070;4.974;2023-02-15T02:52:02;19.23;;;7.67;;
33501;SDS011;22396;51.070;4.974;2023-02-15T02:54:28;27.00;;;9.47;;
33501;SDS011;22396;51.070;4.974;2023-02-15T02:56:53;24.77;;;10.13;;
33501;SDS011;22396;51.070;4.974;2023-02-15T02:59:20;25.00;;;9.00;;
33501;SDS011;22396;51.070;4.974;2023-02-15T03:01:54;24.13;;;9.47;;
33501;SDS011;22396;51.070;4.974;2023-02-15T03:04:22;21.30;;;8.52;;
33501;SDS011;22396;51.070;4.974;2023-02-15T03:06:55;20.53;;;7.77;;
33501;SDS011;22396;51.070;4.974;2023-02-15T03:09:24;24.70;;;8.37;;
33501;SDS011;22396;51.070;4.974;2023-02-15T03:11:50;19.27;;;8.07;;
33501;SDS011;22396;51.070;4.974;2023-02-15T03:14:15;19.67;;;7.93;;
33501;SDS011;22396;51.070;4.974;2023-02-15T03:16:43;22.97;;;8.03;;
33501;SDS011;22396;51.070;4.974;2023-02-15T03:19:12;21.40;;;8.93;;
33501;SDS011;22396;51.070;4.974;2023-02-15T03:21:41;20.63;;;8.50;;
33501;SDS011;22396;51.070;4.974;2023-02-15T03:24:08;26.00;;;8.97;;
33501;SDS011;22396;51.070;4.974;2023-02-15T03:26:34;20.50;;;7.87;;
33501;SDS011;22396;51.070;4.974;2023-02-15T03:29:01;19.33;;;7.87;;
33501;SDS011;22396;51.070;4.974;2023-02-15T03:31:28;23.30;;;8.97;;
33501;SDS011;22396;51.070;4.974;2023-02-15T03:33:57;24.00;;;8.77;;
33501;SDS011;22396;51.070;4.974;2023-02-15T03:36:29;24.33;;;9.27;;
33501;SDS011;22396;51.070;4.974;2023-02-15T03:39:04;25.60;;;9.93;;
33501;SDS011;22396;51.070;4.974;2023-02-15T03:41:32;27.17;;;10.13;;
33501;SDS011;22396;51.070;4.974;2023-02-15T03:44:05;22.40;;;9.60;;
33501;SDS011;22396;51.070;4.974;2023-02-15T03:49:10;20.80;;;8.77;;
33501;SDS011;22396;51.070;4.974;2023-02-15T03:51:37;23.90;;;8.87;;
33501;SDS011;22396;51.070;4.974;2023-02-15T03:54:15;16.67;;;8.20;;
33501;SDS011;22396;51.070;4.974;2023-02-15T03:57:02;24.80;;;8.97;;
33501;SDS011;22396;51.070;4.974;2023-02-15T03:59:46;22.77;;;9.03;;
33501;SDS011;22396;51.070;4.974;2023-02-15T04:02:33;26.90;;;8.70;;
33501;SDS011;22396;51.070;4.974;2023-02-15T04:05:00;27.27;;;9.37;;
33501;SDS011;22396;51.070;4.974;2023-02-15T04:07:26;22.07;;;8.23;;
33501;SDS011;22396;51.070;4.974;2023-02-15T04:09:51;22.07;;;7.87;;
33501;SDS011;22396;51.070;4.974;2023-02-15T04:12:35;20.47;;;7.43;;
33501;SDS011;22396;51.070;4.974;2023-02-15T04:15:00;20.90;;;8.37;;
33501;SDS011;22396;51.070;4.974;2023-02-15T04:17:44;22.17;;;8.90;;
33501;SDS011;22396;51.070;4.974;2023-02-15T04:20:09;22.43;;;8.97;;
33501;SDS011;22396;51.070;4.974;2023-02-15T04:22:53;20.47;;;7.37;;
33501;SDS011;22396;51.070;4.974;2023-02-15T04:25:37;22.77;;;8.50;;
33501;SDS011;22396;51.070;4.974;2023-02-15T04:28:02;23.17;;;9.30;;
33501;SDS011;22396;51.070;4.974;2023-02-15T04:30:28;27.20;;;8.50;;
33501;SDS011;22396;51.070;4.974;2023-02-15T04:32:53;25.27;;;7.70;;
33501;SDS011;22396;51.070;4.974;2023-02-15T04:35:18;26.13;;;9.73;;
33501;SDS011;22396;51.070;4.974;2023-02-15T04:37:44;20.73;;;8.63;;
33501;SDS011;22396;51.070;4.974;2023-02-15T04:40:10;27.43;;;7.93;;
33501;SDS011;22396;51.070;4.974;2023-02-15T04:42:35;23.80;;;7.17;;
33501;SDS011;22396;51.070;4.974;2023-02-15T04:45:01;29.40;;;9.43;;
33501;SDS011;22396;51.070;4.974;2023-02-15T04:47:26;30.03;;;9.73;;
33501;SDS011;22396;51.070;4.974;2023-02-15T04:49:51;26.63;;;10.10;;
33501;SDS011;22396;51.070;4.974;2023-02-15T04:52:17;30.83;;;11.40;;
33501;SDS011;22396;51.070;4.974;2023-02-15T04:54:42;26.80;;;10.80;;
33501;SDS011;22396;51.070;4.974;2023-02-15T04:57:08;27.37;;;10.97;;
33501;SDS011;22396;51.070;4.974;2023-02-15T04:59:33;27.83;;;11.00;;
33501;SDS011;22396;51.070;4.974;2023-02-15T05:01:58;26.47;;;11.47;;
33501;SDS011;22396;51.070;4.974;2023-02-15T05:04:23;25.57;;;9.60;;
33501;SDS011;22396;51.070;4.974;2023-02-15T05:06:49;22.60;;;9.23;;
33501;SDS011;22396;51.070;4.974;2023-02-15T05:09:14;28.17;;;9.73;;
33501;SDS011;22396;51.070;4.974;2023-02-15T05:11:39;29.20;;;10.00;;
33501;SDS011;22396;51.070;4.974;2023-02-15T05:14:04;20.97;;;8.90;;
33501;SDS011;22396;51.070;4.974;2023-02-15T05:16:30;27.17;;;9.43;;
33501;SDS011;22396;51.070;4.974;2023-02-15T05:18:55;27.00;;;9.20;;
33501;SDS011;22396;51.070;4.974;2023-02-15T05:21:20;24.57;;;9.00;;
33501;SDS011;22396;51.070;4.974;2023-02-15T05:23:45;26.23;;;9.97;;
33501;SDS011;22396;51.070;4.974;2023-02-15T05:26:11;26.57;;;9.90;;
33501;SDS011;22396;51.070;4.974;2023-02-15T05:28:55;21.83;;;8.23;;
33501;SDS011;22396;51.070;4.974;2023-02-15T05:31:20;22.73;;;10.07;;
33501;SDS011;22396;51.070;4.974;2023-02-15T05:33:46;25.37;;;10.27;;
33501;SDS011;22396;51.070;4.974;2023-02-15T05:36:11;24.63;;;9.53;;
33501;SDS011;22396;51.070;4.974;2023-02-15T05:38:36;21.57;;;8.63;;
33501;SDS011;22396;51.070;4.974;2023-02-15T05:41:02;32.10;;;11.10;;
33501;SDS011;22396;51.070;4.974;2023-02-15T05:43:28;24.63;;;9.13;;
33501;SDS011;22396;51.070;4.974;2023-02-15T05:45:54;26.47;;;8.93;;
33501;SDS011;22396;51.070;4.974;2023-02-15T05:48:20;20.97;;;8.03;;
33501;SDS011;22396;51.070;4.974;2023-02-15T05:50:45;24.97;;;9.10;;
33501;SDS011;22396;51.070;4.974;2023-02-15T05:53:10;21.63;;;7.57;;
33501;SDS011;22396;51.070;4.974;2023-02-15T05:55:39;27.03;;;9.50;;
33501;SDS011;22396;51.070;4.974;2023-02-15T05:58:05;20.57;;;7.87;;
33501;SDS011;22396;51.070;4.974;2023-02-15T06:00:30;26.27;;;9.80;;
33501;SDS011;22396;51.070;4.974;2023-02-15T06:02:55;20.80;;;8.47;;
33501;SDS011;22396;51.070;4.974;2023-02-15T06:05:20;21.93;;;9.70;;
33501;SDS011;22396;51.070;4.974;2023-02-15T06:07:46;25.07;;;10.77;;
33501;SDS011;22396;51.070;4.974;2023-02-15T06:10:11;24.37;;;9.27;;
33501;SDS011;22396;51.070;4.974;2023-02-15T06:12:36;23.67;;;9.10;;
33501;SDS011;22396;51.070;4.974;2023-02-15T06:15:02;29.97;;;10.73;;
33501;SDS011;22396;51.070;4.974;2023-02-15T06:17:27;22.13;;;8.73;;
33501;SDS011;22396;51.070;4.974;2023-02-15T06:19:52;21.17;;;8.27;;
33501;SDS011;22396;51.070;4.974;2023-02-15T06:22:17;22.50;;;8.97;;
33501;SDS011;22396;51.070;4.974;2023-02-15T06:24:43;32.67;;;11.40;;
33501;SDS011;22396;51.070;4.974;2023-02-15T06:27:09;32.17;;;10.17;;
33501;SDS011;22396;51.070;4.974;2023-02-15T06:29:34;22.87;;;8.90;;
33501;SDS011;22396;51.070;4.974;2023-02-15T06:32:00;22.30;;;8.10;;
33501;SDS011;22396;51.070;4.974;2023-02-15T06:34:29;22.83;;;8.23;;
33501;SDS011;22396;51.070;4.974;2023-02-15T06:36:54;20.47;;;8.57;;
33501;SDS011;22396;51.070;4.974;2023-02-15T06:39:19;20.73;;;9.40;;
33501;SDS011;22396;51.070;4.974;2023-02-15T06:41:44;28.97;;;9.20;;
33501;SDS011;22396;51.070;4.974;2023-02-15T06:44:09;21.13;;;8.70;;
33501;SDS011;22396;51.070;4.974;2023-02-15T06:46:34;31.27;;;9.83;;
33501;SDS011;22396;51.070;4.974;2023-02-15T06:49:00;17.87;;;7.63;;
33501;SDS011;22396;51.070;4.974;2023-02-15T06:51:25;26.97;;;10.27;;
33501;SDS011;22396;51.070;4.974;2023-02-15T06:53:50;28.93;;;10.97;;
33501;SDS011;22396;51.070;4.974;2023-02-15T06:56:15;24.03;;;8.37;;
33501;SDS011;22396;51.070;4.974;2023-02-15T06:58:41;26.23;;;9.27;;
33501;SDS011;22396;51.070;4.974;2023-02-15T07:01:07;25.60;;;9.70;;
33501;SDS011;22396;51.070;4.974;2023-02-15T07:03:33;33.67;;;10.53;;
33501;SDS011;22396;51.070;4.974;2023-02-15T07:05:59;28.57;;;9.43;;
33501;SDS011;22396;51.070;4.974;2023-02-15T07:08:25;26.43;;;9.70;;
33501;SDS011;22396;51.070;4.974;2023-02-15T07:10:51;28.37;;;10.57;;
33501;SDS011;22396;51.070;4.974;2023-02-15T07:13:17;30.10;;;9.83;;
33501;SDS011;22396;51.070;4.974;2023-02-15T07:15:42;22.27;;;9.67;;
33501;SDS011;22396;51.070;4.974;2023-02-15T07:18:07;22.73;;;9.63;;
33501;SDS011;22396;51.070;4.974;2023-02-15T07:20:34;26.40;;;8.77;;
33501;SDS011;22396;51.070;4.974;2023-02-15T07:23:00;24.60;;;9.80;;
33501;SDS011;22396;51.070;4.974;2023-02-15T07:25:25;22.03;;;9.20;;
33501;SDS011;22396;51.070;4.974;2023-02-15T07:27:57;21.60;;;8.40;;
33501;SDS011;22396;51.070;4.974;2023-02-15T07:30:23;22.00;;;9.30;;
33501;SDS011;22396;51.070;4.974;2023-02-15T07:32:48;25.03;;;10.00;;
33501;SDS011;22396;51.070;4.974;2023-02-15T07:35:32;27.97;;;10.47;;
33501;SDS011;22396;51.070;4.974;2023-02-15T07:37:57;24.83;;;10.10;;
33501;SDS011;22396;51.070;4.974;2023-02-15T07:40:23;30.17;;;11.60;;
33501;SDS011;22396;51.070;4.974;2023-02-15T07:42:48;41.33;;;15.10;;
33501;SDS011;22396;51.070;4.974;2023-02-15T07:45:13;35.67;;;12.27;;
33501;SDS011;22396;51.070;4.974;2023-02-15T07:47:38;48.03;;;12.07;;
33501;SDS011;22396;51.070;4.974;2023-02-15T07:50:04;42.10;;;13.73;;
33501;SDS011;22396;51.070;4.974;2023-02-15T07:52:29;29.70;;;10.77;;
33501;SDS011;22396;51.070;4.974;2023-02-15T07:54:54;33.53;;;10.87;;
33501;SDS011;22396;51.070;4.974;2023-02-15T07:57:19;29.83;;;12.23;;
33501;SDS011;22396;51.070;4.974;2023-02-15T07:59:45;34.63;;;12.53;;
33501;SDS011;22396;51.070;4.974;2023-02-15T08:02:10;35.47;;;12.57;;
33501;SDS011;22396;51.070;4.974;2023-02-15T08:04:35;29.17;;;10.80;;
33501;SDS011;22396;51.070;4.974;2023-02-15T08:07:01;23.50;;;9.93;;
33501;SDS011;22396;51.070;4.974;2023-02-15T08:09:26;31.40;;;11.30;;
33501;SDS011;22396;51.070;4.974;2023-02-15T08:11:51;30.83;;;10.87;;
33501;SDS011;22396;51.070;4.974;2023-02-15T08:14:17;34.53;;;10.07;;
33501;SDS011;22396;51.070;4.974;2023-02-15T08:16:47;26.27;;;10.97;;
33501;SDS011;22396;51.070;4.974;2023-02-15T08:21:38;21.90;;;9.13;;
33501;SDS011;22396;51.070;4.974;2023-02-15T08:24:04;23.67;;;9.33;;
33501;SDS011;22396;51.070;4.974;2023-02-15T08:26:30;22.57;;;8.93;;
33501;SDS011;22396;51.070;4.974;2023-02-15T08:28:56;27.87;;;10.37;;
33501;SDS011;22396;51.070;4.974;2023-02-15T08:31:21;28.40;;;9.93;;
33501;SDS011;22396;51.070;4.974;2023-02-15T08:33:47;26.27;;;8.97;;
33501;SDS011;22396;51.070;4.974;2023-02-15T08:36:14;32.07;;;10.10;;
33501;SDS011;22396;51.070;4.974;2023-02-15T08:38:39;32.23;;;8.37;;
33501;SDS011;22396;51.070;4.974;2023-02-15T08:41:12;28.87;;;9.07;;
33501;SDS011;22396;51.070;4.974;2023-02-15T08:43:38;20.70;;;8.70;;
33501;SDS011;22396;51.070;4.974;2023-02-15T08:46:04;21.33;;;8.53;;
33501;SDS011;22396;51.070;4.974;2023-02-15T08:48:29;19.80;;;8.70;;
33501;SDS011;22396;51.070;4.974;2023-02-15T08:50:54;23.23;;;8.77;;
33501;SDS011;22396;51.070;4.974;2023-02-15T08:53:19;21.60;;;8.40;;
33501;SDS011;22396;51.070;4.974;2023-02-15T08:55:46;23.87;;;8.93;;
33501;SDS011;22396;51.070;4.974;2023-02-15T08:58:11;20.47;;;8.77;;
33501;SDS011;22396;51.070;4.974;2023-02-15T09:00:37;20.27;;;8.20;;
33501;SDS011;22396;51.070;4.974;2023-02-15T09:03:02;18.90;;;8.20;;
33501;SDS011;22396;51.070;4.974;2023-02-15T09:05:28;22.70;;;8.00;;
33501;SDS011;22396;51.070;4.974;2023-02-15T09:07:53;22.07;;;8.47;;
33501;SDS011;22396;51.070;4.974;2023-02-15T09:10:18;22.97;;;9.47;;
33501;SDS011;22396;51.070;4.974;2023-02-15T09:12:43;24.37;;;9.40;;
33501;SDS011;22396;51.070;4.974;2023-02-15T09:15:08;21.57;;;8.07;;
33501;SDS011;22396;51.070;4.974;2023-02-15T09:17:34;23.73;;;7.67;;
33501;SDS011;22396;51.070;4.974;2023-02-15T09:19:59;17.53;;;6.73;;
33501;SDS011;22396;51.070;4.974;2023-02-15T09:22:24;16.60;;;7.37;;
33501;SDS011;22396;51.070;4.974;2023-02-15T09:24:49;26.40;;;10.00;;
33501;SDS011;22396;51.070;4.974;2023-02-15T09:27:14;20.80;;;8.20;;
33501;SDS011;22396;51.070;4.974;2023-02-15T09:29:40;27.80;;;8.30;;
33501;SDS011;22396;51.070;4.974;2023-02-15T09:32:05;24.05;;;7.70;;
33501;SDS011;22396;51.070;4.974;2023-02-15T09:34:30;22.87;;;9.47;;
33501;SDS011;22396;51.070;4.974;2023-02-15T09:36:55;27.57;;;8.87;;
33501;SDS011;22396;51.070;4.974;2023-02-15T09:39:21;21.17;;;8.00;;
33501;SDS011;22396;51.070;4.974;2023-02-15T09:42:04;24.50;;;9.23;;
33501;SDS011;22396;51.070;4.974;2023-02-15T09:47:40;24.85;;;8.18;;
33501;SDS011;22396;51.070;4.974;2023-02-15T10:03:23;21.95;;;8.55;;
33501;SDS011;22396;51.070;4.974;2023-02-15T10:05:53;27.63;;;8.60;;
33501;SDS011;22396;51.070;4.974;2023-02-15T10:11:09;21.33;;;7.55;;
33501;SDS011;22396;51.070;4.974;2023-02-15T10:16:56;25.30;;;9.23;;
33501;SDS011;22396;51.070;4.974;2023-02-15T10:26:49;17.65;;;7.80;;
33501;SDS011;22396;51.070;4.974;2023-02-15T10:29:22;24.40;;;8.20;;
33501;SDS011;22396;51.070;4.974;2023-02-15T10:31:57;19.42;;;7.82;;
33501;SDS011;22396;51.070;4.974;2023-02-15T10:34:39;13.18;;;5.80;;
33501;SDS011;22396;51.070;4.974;2023-02-15T10:37:11;24.75;;;8.63;;
33501;SDS011;22396;51.070;4.974;2023-02-15T10:47:31;21.63;;;8.35;;
33501;SDS011;22396;51.070;4.974;2023-02-15T11:00:27;21.35;;;7.28;;
33501;SDS011;22396;51.070;4.974;2023-02-15T11:03:02;19.13;;;7.68;;
33501;SDS011;22396;51.070;4.974;2023-02-15T11:07:55;17.83;;;6.53;;
33501;SDS011;22396;51.070;4.974;2023-02-15T11:10:45;25.15;;;8.98;;
33501;SDS011;22396;51.070;4.974;2023-02-15T11:13:12;23.60;;;8.70;;
33501;SDS011;22396;51.070;4.974;2023-02-15T11:15:51;18.83;;;6.25;;
33501;SDS011;22396;51.070;4.974;2023-02-15T11:23:12;26.65;;;8.93;;
33501;SDS011;22396;51.070;4.974;2023-02-15T11:25:40;25.23;;;7.55;;
33501;SDS011;22396;51.070;4.974;2023-02-15T11:28:06;21.77;;;7.57;;
33501;SDS011;22396;51.070;4.974;2023-02-15T11:30:41;19.75;;;6.82;;
33501;SDS011;22396;51.070;4.974;2023-02-15T11:33:13;21.70;;;8.98;;
33501;SDS011;22396;51.070;4.974;2023-02-15T11:35:47;21.02;;;7.88;;
33501;SDS011;22396;51.070;4.974;2023-02-15T11:38:22;23.15;;;7.88;;
33501;SDS011;22396;51.070;4.974;2023-02-15T11:40:49;22.08;;;8.23;;
33501;SDS011;22396;51.070;4.974;2023-02-15T11:43:18;17.35;;;7.07;;
33501;SDS011;22396;51.070;4.974;2023-02-15T11:45:45;24.20;;;6.90;;
33501;SDS011;22396;51.070;4.974;2023-02-15T11:48:12;17.60;;;7.18;;
33501;SDS011;22396;51.070;4.974;2023-02-15T11:50:37;18.90;;;7.90;;
33501;SDS011;22396;51.070;4.974;2023-02-15T11:53:21;15.52;;;6.78;;
33501;SDS011;22396;51.070;4.974;2023-02-15T11:55:50;21.70;;;8.30;;
33501;SDS011;22396;51.070;4.974;2023-02-15T12:00:46;22.17;;;7.07;;
33501;SDS011;22396;51.070;4.974;2023-02-15T12:03:14;24.52;;;8.07;;
33501;SDS011;22396;51.070;4.974;2023-02-15T12:05:42;17.63;;;5.53;;
33501;SDS011;22396;51.070;4.974;2023-02-15T12:08:17;20.58;;;6.13;;
33501;SDS011;22396;51.070;4.974;2023-02-15T12:13:54;18.38;;;6.95;;
33501;SDS011;22396;51.070;4.974;2023-02-15T12:16:20;24.33;;;7.75;;
33501;SDS011;22396;51.070;4.974;2023-02-15T12:18:45;24.73;;;6.88;;
33501;SDS011;22396;51.070;4.974;2023-02-15T12:21:12;22.88;;;7.43;;
33501;SDS011;22396;51.070;4.974;2023-02-15T12:23:44;22.90;;;8.48;;
33501;SDS011;22396;51.070;4.974;2023-02-15T12:26:12;25.90;;;8.23;;
33501;SDS011;22396;51.070;4.974;2023-02-15T12:28:41;16.85;;;6.53;;
33501;SDS011;22396;51.070;4.974;2023-02-15T12:31:10;20.05;;;7.20;;
33501;SDS011;22396;51.070;4.974;2023-02-15T12:33:44;21.27;;;8.52;;
33501;SDS011;22396;51.070;4.974;2023-02-15T12:36:11;27.90;;;8.60;;
33501;SDS011;22396;51.070;4.974;2023-02-15T12:38:37;21.25;;;8.60;;
33501;SDS011;22396;51.070;4.974;2023-02-15T12:41:04;19.13;;;7.38;;
33501;SDS011;22396;51.070;4.974;2023-02-15T12:43:31;22.70;;;7.40;;
33501;SDS011;22396;51.070;4.974;2023-02-15T12:46:13;22.52;;;7.32;;
33501;SDS011;22396;51.070;4.974;2023-02-15T12:48:39;25.00;;;8.18;;
33501;SDS011;22396;51.070;4.974;2023-02-15T12:51:08;20.75;;;7.75;;
33501;SDS011;22396;51.070;4.974;2023-02-15T12:53:35;27.05;;;7.45;;
33501;SDS011;22396;51.070;4.974;2023-02-15T12:56:01;23.58;;;6.88;;
33501;SDS011;22396;51.070;4.974;2023-02-15T12:58:30;20.55;;;7.43;;
33501;SDS011;22396;51.070;4.974;2023-02-15T13:01:12;19.33;;;6.65;;
33501;SDS011;22396;51.070;4.974;2023-02-15T13:06:23;19.60;;;8.00;;
33501;SDS011;22396;51.070;4.974;2023-02-15T13:08:49;19.90;;;8.13;;
33501;SDS011;22396;51.070;4.974;2023-02-15T13:11:19;24.45;;;7.93;;
33501;SDS011;22396;51.070;4.974;2023-02-15T13:13:55;22.50;;;7.88;;
33501;SDS011;22396;51.070;4.974;2023-02-15T13:16:27;24.60;;;7.30;;
33501;SDS011;22396;51.070;4.974;2023-02-15T13:18:54;18.30;;;6.90;;
33501;SDS011;22396;51.070;4.974;2023-02-15T13:21:38;24.85;;;8.50;;
33501;SDS011;22396;51.070;4.974;2023-02-15T13:24:13;20.67;;;7.78;;
33501;SDS011;22396;51.070;4.974;2023-02-15T13:26:41;22.80;;;7.53;;
33501;SDS011;22396;51.070;4.974;2023-02-15T13:29:12;32.88;;;8.88;;
33501;SDS011;22396;51.070;4.974;2023-02-15T13:31:40;19.90;;;6.50;;
33501;SDS011;22396;51.070;4.974;2023-02-15T13:34:09;23.88;;;7.78;;
33501;SDS011;22396;51.070;4.974;2023-02-15T13:39:19;20.35;;;7.68;;
33501;SDS011;22396;51.070;4.974;2023-02-15T13:41:51;18.52;;;8.38;;
33501;SDS011;22396;51.070;4.974;2023-02-15T13:44:21;27.30;;;9.45;;
33501;SDS011;22396;51.070;4.974;2023-02-15T13:52:04;24.90;;;7.75;;
33501;SDS011;22396;51.070;4.974;2023-02-15T13:59:25;23.13;;;9.73;;
33501;SDS011;22396;51.070;4.974;2023-02-15T14:01:57;21.02;;;8.35;;
33501;SDS011;22396;51.070;4.974;2023-02-15T14:15:00;25.08;;;7.97;;
33501;SDS011;22396;51.070;4.974;2023-02-15T14:17:37;16.30;;;6.88;;
33501;SDS011;22396;51.070;4.974;2023-02-15T14:20:14;24.30;;;9.20;;
33501;SDS011;22396;51.070;4.974;2023-02-15T14:22:43;28.92;;;8.27;;
33501;SDS011;22396;51.070;4.974;2023-02-15T14:30:31;23.20;;;8.80;;
33501;SDS011;22396;51.070;4.974;2023-02-15T14:33:02;28.75;;;8.63;;
33501;SDS011;22396;51.070;4.974;2023-02-15T14:35:29;18.80;;;7.43;;
33501;SDS011;22396;51.070;4.974;2023-02-15T14:37:58;28.15;;;10.20;;
33501;SDS011;22396;51.070;4.974;2023-02-15T14:43:20;22.20;;;8.98;;
33501;SDS011;22396;51.070;4.974;2023-02-15T14:45:50;20.98;;;8.07;;
33501;SDS011;22396;51.070;4.974;2023-02-15T14:48:19;19.45;;;7.40;;
33501;SDS011;22396;51.070;4.974;2023-02-15T14:50:47;24.77;;;8.80;;
33501;SDS011;22396;51.070;4.974;2023-02-15T14:55:40;20.52;;;8.60;;
33501;SDS011;22396;51.070;4.974;2023-02-15T14:58:09;23.98;;;9.23;;
33501;SDS011;22396;51.070;4.974;2023-02-15T15:00:36;21.95;;;8.15;;
33501;SDS011;22396;51.070;4.974;2023-02-15T15:03:02;18.55;;;8.05;;
33501;SDS011;22396;51.070;4.974;2023-02-15T15:05:35;29.75;;;8.27;;
33501;SDS011;22396;51.070;4.974;2023-02-15T15:08:01;29.45;;;9.35;;
33501;SDS011;22396;51.070;4.974;2023-02-15T15:10:38;27.58;;;9.13;;
33501;SDS011;22396;51.070;4.974;2023-02-15T15:13:51;26.98;;;8.75;;
33501;SDS011;22396;51.070;4.974;2023-02-15T15:15:52;23.73;;;8.05;;
33501;SDS011;22396;51.070;4.974;2023-02-15T15:29:45;23.45;;;7.65;;
33501;SDS011;22396;51.070;4.974;2023-02-15T15:32:10;24.02;;;8.32;;
33501;SDS011;22396;51.070;4.974;2023-02-15T15:34:46;23.77;;;8.60;;
33501;SDS011;22396;51.070;4.974;2023-02-15T15:37:34;27.60;;;9.15;;
33501;SDS011;22396;51.070;4.974;2023-02-15T15:42:50;28.08;;;9.50;;
33501;SDS011;22396;51.070;4.974;2023-02-15T15:45:30;28.80;;;8.43;;
33501;SDS011;22396;51.070;4.974;2023-02-15T15:50:22;21.13;;;8.15;;
33501;SDS011;22396;51.070;4.974;2023-02-15T15:52:51;21.58;;;8.23;;
33501;SDS011;22396;51.070;4.974;2023-02-15T15:55:18;24.25;;;7.82;;
33501;SDS011;22396;51.070;4.974;2023-02-15T15:57:45;24.38;;;8.27;;
33501;SDS011;22396;51.070;4.974;2023-02-15T16:02:55;23.92;;;8.57;;
33501;SDS011;22396;51.070;4.974;2023-02-15T16:05:21;24.88;;;7.88;;
33501;SDS011;22396;51.070;4.974;2023-02-15T16:07:46;32.95;;;8.82;;
33501;SDS011;22396;51.070;4.974;2023-02-15T16:10:22;25.15;;;9.63;;
33501;SDS011;22396;51.070;4.974;2023-02-15T16:12:47;24.23;;;8.23;;
33501;SDS011;22396;51.070;4.974;2023-02-15T16:15:15;20.50;;;7.97;;
33501;SDS011;22396;51.070;4.974;2023-02-15T16:17:41;29.05;;;8.90;;
33501;SDS011;22396;51.070;4.974;2023-02-15T16:20:17;21.52;;;9.10;;
33501;SDS011;22396;51.070;4.974;2023-02-15T16:22:44;26.67;;;9.07;;
33501;SDS011;22396;51.070;4.974;2023-02-15T16:27:42;23.40;;;8.77;;
33501;SDS011;22396;51.070;4.974;2023-02-15T16:32:45;24.13;;;7.85;;
33501;SDS011;22396;51.070;4.974;2023-02-15T16:35:13;27.35;;;8.32;;
33501;SDS011;22396;51.070;4.974;2023-02-15T16:37:39;22.10;;;8.80;;
33501;SDS011;22396;51.070;4.974;2023-02-15T16:40:04;22.73;;;7.93;;
33501;SDS011;22396;51.070;4.974;2023-02-15T16:42:29;24.05;;;8.13;;
33501;SDS011;22396;51.070;4.974;2023-02-15T16:45:01;23.55;;;7.95;;
33501;SDS011;22396;51.070;4.974;2023-02-15T16:47:31;26.30;;;8.57;;
33501;SDS011;22396;51.070;4.974;2023-02-15T16:49:59;21.05;;;8.90;;
33501;SDS011;22396;51.070;4.974;2023-02-15T16:52:26;38.40;;;12.85;;
33501;SDS011;22396;51.070;4.974;2023-02-15T16:54:56;39.38;;;12.95;;
33501;SDS011;22396;51.070;4.974;2023-02-15T16:57:23;24.15;;;8.82;;
33501;SDS011;22396;51.070;4.974;2023-02-15T16:59:49;33.13;;;11.18;;